createdAt,value
2022-08-29T00:01:30.860Z,23.00
2022-08-29T00:03:59.460Z,22.39
2022-08-29T00:06:27.686Z,22.76
2022-08-29T00:08:55.100Z,22.73
2022-08-29T00:11:22.834Z,22.81
2022-08-29T00:13:50.402Z,23.00
2022-08-29T00:16:18.992Z,22.89
2022-08-29T00:18:46.712Z,22.92
2022-08-29T00:21:14.193Z,23.05
2022-08-29T00:23:42.915Z,22.91
2022-08-29T00:26:11.110Z,23.46
2022-08-29T00:28:38.633Z,23.44
2022-08-29T00:31:06.187Z,23.48
2022-08-29T00:33:33.989Z,23.39
2022-08-29T00:36:02.714Z,23.15
2022-08-29T00:38:31.719Z,23.03
2022-08-29T00:40:59.473Z,22.75
2022-08-29T00:43:31.275Z,22.12
2022-08-29T00:46:18.160Z,22.10
2022-08-29T00:48:50.481Z,21.92
2022-08-29T00:51:22.585Z,20.81
2022-08-29T00:53:58.265Z,22.01
2022-08-29T00:56:26.481Z,21.57
2022-08-29T00:58:57.107Z,21.77
2022-08-29T01:01:25.198Z,21.85
2022-08-29T01:03:53.611Z,22.14
2022-08-29T01:06:22.311Z,21.13
2022-08-29T01:08:57.252Z,21.72
2022-08-29T01:11:47.379Z,22.15
2022-08-29T01:14:16.883Z,22.09
2022-08-29T01:16:46.134Z,21.83
2022-08-29T01:19:35.804Z,21.75
2022-08-29T01:22:07.776Z,21.17
2022-08-29T01:24:39.895Z,21.90
2022-08-29T01:27:08.176Z,22.18
2022-08-29T01:29:36.181Z,20.65
2022-08-29T01:32:04.281Z,21.52
2022-08-29T01:34:32.095Z,21.72
2022-08-29T01:37:03.457Z,21.95
2022-08-29T01:39:34.018Z,21.88
2022-08-29T01:42:06.363Z,21.83
2022-08-29T01:44:33.804Z,22.07
2022-08-29T01:47:03.407Z,22.35
2022-08-29T01:49:34.541Z,21.40
2022-08-29T01:52:04.149Z,22.10
2022-08-29T01:54:32.637Z,22.07
2022-08-29T01:57:01.598Z,22.04
2022-08-29T01:59:30.717Z,22.01
2022-08-29T02:02:00.856Z,21.72
2022-08-29T02:04:28.869Z,21.86
2022-08-29T02:06:56.537Z,21.85
2022-08-29T02:09:25.222Z,20.80
2022-08-29T02:11:55.082Z,21.47
2022-08-29T02:14:23.695Z,21.65
2022-08-29T02:16:51.129Z,21.80
2022-08-29T02:19:19.470Z,21.75
2022-08-29T02:21:46.986Z,21.62
2022-08-29T02:24:25.404Z,21.51
2022-08-29T02:26:55.310Z,21.47
2022-08-29T02:29:23.180Z,21.30
2022-08-29T02:31:50.675Z,21.53
2022-08-29T02:34:18.459Z,21.23
2022-08-29T02:36:49.023Z,21.06
2022-08-29T02:39:18.055Z,21.19
2022-08-29T02:41:46.006Z,21.12
2022-08-29T02:44:13.596Z,21.05
2022-08-29T02:46:41.157Z,21.25
2022-08-29T02:49:08.928Z,20.08
2022-08-29T02:51:36.359Z,20.60
2022-08-29T02:54:03.988Z,20.80
2022-08-29T02:56:31.654Z,20.66
2022-08-29T02:58:59.801Z,21.07
2022-08-29T03:01:27.691Z,21.19
2022-08-29T03:03:55.877Z,21.15
2022-08-29T03:06:23.626Z,20.96
2022-08-29T03:08:51.576Z,20.94
2022-08-29T03:11:21.961Z,21.27
2022-08-29T03:13:49.547Z,21.32
2022-08-29T03:16:17.287Z,20.83
2022-08-29T03:18:44.974Z,20.71
2022-08-29T03:21:17.158Z,20.92
2022-08-29T03:23:44.928Z,21.07
2022-08-29T03:26:12.422Z,20.19
2022-08-29T03:28:39.871Z,19.62
2022-08-29T03:31:07.761Z,19.87
2022-08-29T03:33:35.315Z,20.28
2022-08-29T03:36:03.520Z,20.00
2022-08-29T03:38:42.585Z,20.71
2022-08-29T03:41:10.010Z,20.84
2022-08-29T03:43:37.615Z,20.13
2022-08-29T03:46:05.371Z,20.12
2022-08-29T03:48:33.881Z,19.81
2022-08-29T03:51:01.359Z,20.31
2022-08-29T03:53:30.724Z,20.07
2022-08-29T03:55:58.435Z,19.33
2022-08-29T03:58:25.994Z,20.00
2022-08-29T04:00:53.717Z,19.65
2022-08-29T04:03:24.975Z,19.69
2022-08-29T04:05:59.199Z,19.48
2022-08-29T04:08:27.214Z,20.51
2022-08-29T04:10:54.680Z,20.08
2022-08-29T04:13:22.213Z,20.08
2022-08-29T04:15:50.492Z,19.84
2022-08-29T04:18:21.617Z,19.95
2022-08-29T04:20:50.244Z,20.20
2022-08-29T04:23:17.663Z,19.51
2022-08-29T04:25:45.137Z,19.43
2022-08-29T04:28:14.596Z,20.17
2022-08-29T04:30:51.206Z,20.29
2022-08-29T04:33:22.744Z,20.45
2022-08-29T04:35:51.853Z,21.05
2022-08-29T04:38:19.846Z,19.83
2022-08-29T04:40:48.030Z,20.34
2022-08-29T04:43:15.424Z,21.18
2022-08-29T04:45:42.910Z,20.93
2022-08-29T04:48:10.909Z,20.60
2022-08-29T04:50:39.138Z,20.19
2022-08-29T04:53:06.650Z,21.14
2022-08-29T04:55:34.365Z,21.22
2022-08-29T04:58:01.971Z,20.62
2022-08-29T05:00:31.502Z,20.77
2022-08-29T05:03:00.237Z,21.29
2022-08-29T05:05:28.068Z,20.33
2022-08-29T05:07:55.489Z,20.55
2022-08-29T05:10:23.510Z,21.18
2022-08-29T05:12:50.909Z,21.36
2022-08-29T05:15:18.763Z,20.47
2022-08-29T05:17:46.443Z,20.53
2022-08-29T05:20:14.164Z,21.39
2022-08-29T05:22:42.206Z,21.46
2022-08-29T05:25:17.390Z,21.41
2022-08-29T05:27:46.701Z,21.80
2022-08-29T05:30:16.397Z,21.71
2022-08-29T05:32:52.031Z,21.79
2022-08-29T05:35:19.830Z,20.37
2022-08-29T05:37:47.313Z,21.50
2022-08-29T05:40:14.735Z,21.85
2022-08-29T05:42:42.950Z,21.30
2022-08-29T05:45:11.016Z,20.85
2022-08-29T05:47:38.590Z,20.16
2022-08-29T05:50:07.549Z,21.19
2022-08-29T05:52:34.992Z,21.65
2022-08-29T05:55:02.526Z,21.84
2022-08-29T05:57:30.340Z,21.27
2022-08-29T05:59:58.053Z,20.61
2022-08-29T06:02:25.552Z,20.52
2022-08-29T06:04:53.552Z,20.19
2022-08-29T06:07:20.970Z,21.16
2022-08-29T06:09:48.568Z,20.80
2022-08-29T06:12:16.572Z,20.60
2022-08-29T06:14:50.287Z,20.30
2022-08-29T06:17:19.016Z,20.75
2022-08-29T06:19:50.119Z,20.22
2022-08-29T06:22:19.346Z,20.09
2022-08-29T06:24:47.489Z,20.88
2022-08-29T06:27:16.247Z,21.27
2022-08-29T06:29:44.088Z,20.48
2022-08-29T06:32:13.071Z,20.70
2022-08-29T06:34:40.887Z,21.77
2022-08-29T06:37:08.525Z,21.21
2022-08-29T06:39:36.457Z,20.90
2022-08-29T06:42:04.346Z,21.49
2022-08-29T06:44:32.059Z,20.99
2022-08-29T06:47:00.091Z,21.50
2022-08-29T06:49:28.063Z,21.45
2022-08-29T06:51:58.341Z,21.91
2022-08-29T06:54:28.659Z,21.92
2022-08-29T06:56:57.781Z,23.18
2022-08-29T06:59:25.748Z,21.54
2022-08-29T07:01:55.411Z,22.75
2022-08-29T07:04:23.220Z,22.44
2022-08-29T07:06:54.741Z,22.41
2022-08-29T07:09:22.546Z,21.91
2022-08-29T07:11:50.000Z,22.07
2022-08-29T07:14:18.247Z,22.76
2022-08-29T07:16:45.921Z,22.41
2022-08-29T07:19:13.340Z,23.09
2022-08-29T07:21:41.073Z,23.48
2022-08-29T07:24:08.774Z,22.59
2022-08-29T07:26:42.246Z,22.56
2022-08-29T07:29:13.826Z,23.24
2022-08-29T07:31:41.740Z,23.12
2022-08-29T07:34:09.787Z,22.55
2022-08-29T07:36:38.101Z,22.34
2022-08-29T07:39:08.832Z,23.45
2022-08-29T07:41:38.110Z,23.05
2022-08-29T07:44:05.921Z,22.73
2022-08-29T07:46:33.475Z,24.19
2022-08-29T07:49:01.027Z,24.47
2022-08-29T07:51:28.978Z,24.76
2022-08-29T07:53:57.369Z,24.79
2022-08-29T07:56:28.666Z,25.67
2022-08-29T07:58:57.900Z,26.37
2022-08-29T08:01:25.754Z,26.03
2022-08-29T08:03:54.297Z,26.06
2022-08-29T08:06:27.065Z,26.89
2022-08-29T08:08:55.590Z,27.48
2022-08-29T08:11:24.659Z,26.16
2022-08-29T08:13:55.974Z,27.77
2022-08-29T08:16:25.668Z,27.99
2022-08-29T08:18:53.872Z,27.50
2022-08-29T08:21:21.535Z,28.86
2022-08-29T08:23:49.463Z,28.78
2022-08-29T08:26:17.417Z,28.97
2022-08-29T08:28:45.348Z,26.31
2022-08-29T08:31:14.973Z,26.28
2022-08-29T08:33:44.838Z,28.17
2022-08-29T08:36:18.349Z,29.02
2022-08-29T08:38:46.890Z,26.48
2022-08-29T08:41:27.417Z,26.42
2022-08-29T08:44:00.613Z,25.84
2022-08-29T08:46:37.658Z,26.62
2022-08-29T08:49:27.404Z,28.17
2022-08-29T08:51:59.521Z,28.80
2022-08-29T08:54:29.676Z,27.67
2022-08-29T08:57:11.677Z,27.64
2022-08-29T08:59:45.399Z,26.53
2022-08-29T09:02:45.469Z,25.97
2022-08-29T09:05:39.417Z,26.49
2022-08-29T09:08:09.969Z,26.30
2022-08-29T09:10:58.581Z,27.32
2022-08-29T09:13:39.400Z,25.91
2022-08-29T09:16:29.295Z,26.33
2022-08-29T09:19:00.512Z,25.86
2022-08-29T09:21:41.033Z,25.60
2022-08-29T09:24:13.750Z,26.76
2022-08-29T09:26:41.521Z,26.03
2022-08-29T09:29:10.045Z,26.86
2022-08-29T09:31:37.757Z,25.99
2022-08-29T09:34:08.249Z,25.84
2022-08-29T09:36:47.773Z,25.41
2022-08-29T09:39:21.048Z,26.13
2022-08-29T09:41:53.139Z,26.49
2022-08-29T09:44:32.508Z,27.25
2022-08-29T09:47:12.516Z,27.43
2022-08-29T09:49:42.489Z,25.90
2022-08-29T09:52:14.387Z,26.14
2022-08-29T09:54:43.589Z,26.65
2022-08-29T09:57:25.819Z,27.15
2022-08-29T10:00:16.367Z,27.52
2022-08-29T10:02:49.934Z,27.29
2022-08-29T10:05:28.003Z,27.13
2022-08-29T10:07:55.803Z,27.79
2022-08-29T10:10:25.880Z,27.46
2022-08-29T10:13:08.669Z,27.29
2022-08-29T10:15:51.181Z,27.31
2022-08-29T10:19:04.657Z,27.86
2022-08-29T10:21:41.532Z,28.25
2022-08-29T10:24:19.586Z,28.25
2022-08-29T10:27:03.751Z,29.08
2022-08-29T10:29:48.096Z,27.79
2022-08-29T10:32:25.125Z,27.12
2022-08-29T10:35:14.307Z,27.59
2022-08-29T10:37:47.709Z,28.19
2022-08-29T10:40:21.803Z,29.04
2022-08-29T10:42:51.534Z,29.19
2022-08-29T10:45:36.281Z,29.44
2022-08-29T10:48:11.822Z,29.91
2022-08-29T10:50:46.897Z,30.15
2022-08-29T10:53:21.591Z,29.87
2022-08-29T10:56:05.895Z,28.76
2022-08-29T10:58:53.341Z,28.98
2022-08-29T11:01:27.770Z,28.94
2022-08-29T11:04:01.903Z,27.69
2022-08-29T11:06:34.843Z,28.00
2022-08-29T11:09:21.509Z,29.05
2022-08-29T11:12:18.110Z,29.06
2022-08-29T11:14:53.969Z,28.99
2022-08-29T11:17:26.092Z,29.45
2022-08-29T11:20:00.832Z,29.82
2022-08-29T11:22:40.479Z,29.99
2022-08-29T11:25:18.222Z,29.82
2022-08-29T11:28:04.425Z,29.48
2022-08-29T11:30:59.290Z,28.61
2022-08-29T11:33:37.818Z,29.50
2022-08-29T11:36:08.645Z,29.33
2022-08-29T11:39:00.266Z,28.73
2022-08-29T11:41:35.731Z,28.59
2022-08-29T11:44:40.014Z,29.40
2022-08-29T11:47:41.118Z,29.17
2022-08-29T11:50:14.766Z,28.60
2022-08-29T11:53:20.886Z,29.02
2022-08-29T11:56:13.419Z,28.99
2022-08-29T11:58:48.095Z,28.56
2022-08-29T12:01:24.897Z,29.17
2022-08-29T12:03:56.844Z,29.07
2022-08-29T12:06:55.945Z,28.52
2022-08-29T12:09:41.401Z,28.87
2022-08-29T12:12:15.580Z,29.57
2022-08-29T12:14:50.569Z,29.60
2022-08-29T12:17:23.360Z,29.57
2022-08-29T12:19:56.863Z,29.22
2022-08-29T12:22:52.119Z,29.57
2022-08-29T12:25:45.898Z,29.19
2022-08-29T12:28:16.093Z,28.95
2022-08-29T12:30:47.140Z,29.44
2022-08-29T12:33:17.475Z,29.19
2022-08-29T12:36:07.786Z,29.45
2022-08-29T12:39:07.172Z,30.06
2022-08-29T12:41:51.326Z,29.18
2022-08-29T12:44:25.230Z,29.37
2022-08-29T12:47:02.805Z,30.28
2022-08-29T12:49:39.747Z,29.30
2022-08-29T12:52:28.664Z,29.39
2022-08-29T12:54:57.897Z,29.43
2022-08-29T12:57:36.911Z,30.49
2022-08-29T13:00:11.417Z,29.92
2022-08-29T13:02:39.253Z,29.55
2022-08-29T13:05:26.914Z,29.20
2022-08-29T13:08:01.787Z,30.43
2022-08-29T13:10:29.757Z,29.72
2022-08-29T13:13:06.995Z,30.72
2022-08-29T13:15:34.938Z,30.68
2022-08-29T13:18:03.346Z,30.45
2022-08-29T13:20:43.216Z,29.90
2022-08-29T13:23:24.301Z,29.15
2022-08-29T13:26:02.068Z,28.67
2022-08-29T13:28:43.127Z,28.75
2022-08-29T13:31:16.766Z,28.49
2022-08-29T13:33:59.624Z,28.72
2022-08-29T13:36:27.038Z,29.06
2022-08-29T13:39:26.478Z,28.93
2022-08-29T13:42:02.940Z,28.81
2022-08-29T13:44:45.574Z,28.83
2022-08-29T13:47:16.080Z,28.67
2022-08-29T13:49:43.806Z,28.85
2022-08-29T13:52:11.836Z,28.38
2022-08-29T13:54:43.067Z,29.02
2022-08-29T13:57:18.933Z,28.58
2022-08-29T13:59:46.606Z,28.70
2022-08-29T14:02:14.981Z,28.88
2022-08-29T14:04:47.975Z,29.00
2022-08-29T14:07:22.073Z,28.25
2022-08-29T14:09:49.670Z,28.36
2022-08-29T14:12:17.977Z,28.40
2022-08-29T14:14:45.634Z,28.61
2022-08-29T14:17:18.391Z,28.46
2022-08-29T14:19:47.011Z,29.04
2022-08-29T14:22:15.140Z,29.56
2022-08-29T14:24:42.813Z,29.10
2022-08-29T14:27:10.485Z,29.52
2022-08-29T14:29:38.482Z,29.48
2022-08-29T14:32:05.968Z,29.17
2022-08-29T14:34:33.392Z,28.92
2022-08-29T14:37:01.617Z,29.35
2022-08-29T14:39:30.552Z,28.82
2022-08-29T14:41:57.974Z,28.91
2022-08-29T14:44:25.920Z,29.72
2022-08-29T14:46:53.354Z,29.57
2022-08-29T14:49:25.294Z,29.35
2022-08-29T14:51:53.040Z,29.62
2022-08-29T14:54:20.494Z,29.96
2022-08-29T14:56:49.459Z,29.37
2022-08-29T14:59:19.407Z,29.83
2022-08-29T15:01:52.978Z,29.12
2022-08-29T15:04:35.410Z,29.44
2022-08-29T15:07:11.944Z,29.25
2022-08-29T15:09:41.734Z,29.55
2022-08-29T15:12:10.443Z,29.12
2022-08-29T15:14:38.116Z,28.93
2022-08-29T15:17:06.372Z,28.85
2022-08-29T15:22:23.035Z,29.05
2022-08-29T15:24:51.356Z,29.20
2022-08-29T15:27:27.346Z,29.75
2022-08-29T15:29:56.854Z,28.50
2022-08-29T15:32:25.884Z,28.33
2022-08-29T15:34:53.394Z,28.13
2022-08-29T15:37:22.040Z,29.06
2022-08-29T15:39:54.997Z,29.33
2022-08-29T15:42:28.969Z,29.43
2022-08-29T15:44:58.667Z,29.42
2022-08-29T15:47:27.173Z,29.35
2022-08-29T15:49:54.946Z,29.27
2022-08-29T15:52:22.419Z,29.10
2022-08-29T15:54:50.739Z,28.45
2022-08-29T15:57:19.549Z,28.86
2022-08-29T15:59:58.188Z,28.17
2022-08-29T16:02:28.047Z,29.01
2022-08-29T16:04:57.357Z,29.06
2022-08-29T16:07:29.093Z,29.20
2022-08-29T16:10:05.759Z,28.85
2022-08-29T16:12:39.809Z,29.06
2022-08-29T16:15:09.993Z,29.30
2022-08-29T16:17:39.254Z,28.52
2022-08-29T16:20:11.530Z,28.82
2022-08-29T16:22:40.366Z,28.76
2022-08-29T16:25:09.913Z,28.67
2022-08-29T16:27:37.729Z,28.46
2022-08-29T16:30:06.636Z,28.85
2022-08-29T16:32:34.642Z,28.74
2022-08-29T16:35:02.393Z,28.80
2022-08-29T16:37:29.912Z,28.81
2022-08-29T16:39:59.276Z,28.78
2022-08-29T16:42:30.449Z,28.56
2022-08-29T16:44:59.915Z,28.64
2022-08-29T16:47:28.006Z,28.80
2022-08-29T16:49:55.658Z,28.82
2022-08-29T16:52:23.495Z,28.11
2022-08-29T16:54:52.067Z,27.99
2022-08-29T16:57:21.808Z,28.11
2022-08-29T16:59:49.566Z,28.26
2022-08-29T17:02:17.354Z,28.36
2022-08-29T17:04:46.639Z,28.06
2022-08-29T17:07:14.577Z,28.01
2022-08-29T17:09:42.030Z,27.72
2022-08-29T17:12:09.861Z,27.80
2022-08-29T17:14:37.677Z,27.88
2022-08-29T17:17:05.339Z,28.10
2022-08-29T17:19:33.739Z,28.03
2022-08-29T17:22:01.649Z,28.19
2022-08-29T17:24:29.118Z,27.88
2022-08-29T17:26:57.626Z,27.81
2022-08-29T17:29:25.436Z,27.85
2022-08-29T17:31:52.930Z,27.94
2022-08-29T17:34:20.348Z,27.64
2022-08-29T17:36:49.727Z,27.65
2022-08-29T17:39:17.229Z,27.59
2022-08-29T17:41:50.622Z,27.80
2022-08-29T17:44:18.458Z,27.73
2022-08-29T17:46:46.328Z,27.72
2022-08-29T17:49:14.068Z,27.42
2022-08-29T17:51:42.149Z,27.52
2022-08-29T17:54:14.931Z,27.64
2022-08-29T17:56:55.234Z,27.39
2022-08-29T17:59:23.967Z,27.47
2022-08-29T18:01:52.512Z,27.40
2022-08-29T18:04:20.708Z,27.62
2022-08-29T18:06:48.411Z,27.81
2022-08-29T18:09:15.857Z,27.92
2022-08-29T18:11:47.706Z,27.75
2022-08-29T18:14:16.889Z,27.73
2022-08-29T18:16:44.803Z,27.40
2022-08-29T18:19:13.569Z,27.52
2022-08-29T18:21:41.655Z,27.44
2022-08-29T18:24:13.870Z,27.19
2022-08-29T18:26:42.621Z,27.21
2022-08-29T18:29:11.144Z,27.42
2022-08-29T18:31:40.867Z,27.42
2022-08-29T18:34:09.553Z,27.34
2022-08-29T18:36:40.049Z,27.40
2022-08-29T18:39:08.505Z,27.56
2022-08-29T18:41:36.077Z,27.46
2022-08-29T18:44:04.014Z,27.30
2022-08-29T18:46:32.450Z,27.39
2022-08-29T18:49:00.159Z,27.30
2022-08-29T18:51:28.050Z,27.05
2022-08-29T18:53:57.673Z,26.54
2022-08-29T18:56:26.966Z,26.95
2022-08-29T18:58:58.867Z,27.12
2022-08-29T19:01:29.037Z,26.97
2022-08-29T19:03:58.999Z,27.38
2022-08-29T19:06:27.463Z,27.10
2022-08-29T19:08:56.607Z,27.16
2022-08-29T19:11:25.383Z,26.65
2022-08-29T19:15:00.836Z,27.16
2022-08-29T19:16:41.058Z,27.54
2022-08-29T19:19:13.430Z,27.18
2022-08-29T19:21:42.353Z,26.57
2022-08-29T19:24:10.276Z,26.69
2022-08-29T19:26:40.165Z,25.66
2022-08-29T19:29:12.998Z,25.20
2022-08-29T19:31:42.133Z,25.74
2022-08-29T19:34:09.670Z,26.76
2022-08-29T19:36:39.158Z,27.02
2022-08-29T19:39:06.836Z,26.39
2022-08-29T19:41:34.938Z,26.02
2022-08-29T19:44:02.847Z,26.05
2022-08-29T19:46:32.448Z,25.24
2022-08-29T19:49:00.453Z,25.70
2022-08-29T19:51:32.637Z,25.33
2022-08-29T19:54:03.228Z,25.10
2022-08-29T19:56:33.410Z,24.93
2022-08-29T19:59:01.820Z,24.91
2022-08-29T20:01:29.868Z,24.50
2022-08-29T20:03:57.758Z,24.23
2022-08-29T20:06:25.793Z,23.93
2022-08-29T20:08:54.158Z,24.21
2022-08-29T20:11:25.073Z,24.44
2022-08-29T20:13:59.405Z,24.43
2022-08-29T20:16:30.454Z,24.45
2022-08-29T20:18:58.974Z,24.26
2022-08-29T20:21:26.877Z,23.87
2022-08-29T20:23:58.349Z,23.88
2022-08-29T20:26:34.630Z,24.11
2022-08-29T20:29:05.311Z,24.36
2022-08-29T20:31:33.075Z,23.90
2022-08-29T20:34:01.023Z,23.71
2022-08-29T20:36:47.558Z,23.15
2022-08-29T20:39:18.018Z,23.26
2022-08-29T20:41:50.686Z,23.36
2022-08-29T20:44:20.407Z,23.42
2022-08-29T20:46:49.136Z,23.30
2022-08-29T20:49:19.622Z,23.47
2022-08-29T20:51:48.397Z,23.84
2022-08-29T20:54:19.272Z,24.08
2022-08-29T20:56:48.786Z,23.81
2022-08-29T20:59:16.667Z,23.61
2022-08-29T21:01:44.497Z,23.68
2022-08-29T21:04:31.542Z,23.65
2022-08-29T21:07:01.645Z,23.42
2022-08-29T21:09:29.189Z,23.30
2022-08-29T21:11:57.122Z,23.40
2022-08-29T21:14:27.333Z,23.17
2022-08-29T21:16:56.803Z,23.08
2022-08-29T21:19:27.350Z,23.10
2022-08-29T21:21:57.322Z,23.12
2022-08-29T21:24:25.180Z,23.14
2022-08-29T21:26:52.869Z,23.17
2022-08-29T21:29:20.882Z,23.35
2022-08-29T21:31:49.453Z,23.00
2022-08-29T21:34:17.408Z,22.76
2022-08-29T21:36:45.277Z,22.72
2022-08-29T21:39:13.715Z,22.89
2022-08-29T21:41:57.432Z,23.05
2022-08-29T21:44:24.834Z,22.81
2022-08-29T21:46:52.796Z,23.01
2022-08-29T21:49:21.875Z,23.13
2022-08-29T21:51:49.530Z,23.02
2022-08-29T21:54:17.572Z,23.29
2022-08-29T21:56:45.904Z,22.75
2022-08-29T21:59:14.985Z,22.64
2022-08-29T22:01:43.832Z,22.55
2022-08-29T22:04:18.667Z,23.00
2022-08-29T22:06:55.108Z,22.67
2022-08-29T22:09:23.629Z,23.12
2022-08-29T22:11:51.974Z,22.83
2022-08-29T22:14:19.396Z,23.36
2022-08-29T22:16:47.462Z,23.12
2022-08-29T22:19:16.962Z,22.83
2022-08-29T22:21:51.988Z,22.11
2022-08-29T22:24:20.104Z,22.38
2022-08-29T22:26:47.767Z,22.16
2022-08-29T22:29:16.092Z,22.21
2022-08-29T22:31:44.993Z,22.37
2022-08-29T22:34:14.407Z,21.89
2022-08-29T22:36:42.776Z,21.74
2022-08-29T22:39:10.887Z,21.58
2022-08-29T22:41:38.469Z,21.55
2022-08-29T22:46:54.702Z,21.44
2022-08-29T22:49:22.171Z,21.20
2022-08-29T22:51:50.336Z,21.32
2022-08-29T22:54:36.776Z,21.44
2022-08-29T22:57:10.246Z,21.29
2022-08-29T22:59:38.705Z,21.09
2022-08-29T23:02:07.524Z,21.31
2022-08-29T23:04:35.434Z,21.49
2022-08-29T23:07:03.946Z,22.02
2022-08-29T23:09:35.242Z,21.88
2022-08-29T23:12:05.916Z,22.21
2022-08-29T23:14:37.720Z,22.09
2022-08-29T23:17:07.075Z,23.07
2022-08-29T23:19:35.450Z,22.95
2022-08-29T23:22:03.098Z,23.26
2022-08-29T23:24:31.728Z,23.20
2022-08-29T23:26:59.277Z,23.07
2022-08-29T23:29:27.463Z,22.94
2022-08-29T23:31:55.181Z,22.71
2022-08-29T23:34:23.599Z,22.49
2022-08-29T23:36:51.133Z,22.37
2022-08-29T23:39:18.926Z,22.40
2022-08-29T23:41:46.471Z,22.30
2022-08-29T23:44:13.875Z,22.63
2022-08-29T23:46:41.681Z,22.90
2022-08-29T23:49:09.243Z,22.55
2022-08-29T23:51:36.692Z,22.80
2022-08-29T23:54:04.390Z,22.67
2022-08-29T23:56:32.132Z,22.71
2022-08-29T23:58:59.794Z,23.10
